createdAt,value
2023-05-06T00:00:14.616Z,95507.58
2023-05-06T00:01:41.105Z,95508.70
2023-05-06T00:02:47.375Z,95509.73
2023-05-06T00:03:54.640Z,95510.59
2023-05-06T00:05:03.384Z,95509.80
2023-05-06T00:06:09.502Z,95508.33
2023-05-06T00:07:16.026Z,95506.56
2023-05-06T00:08:22.688Z,95508.54
2023-05-06T00:09:29.144Z,95506.71
2023-05-06T00:10:35.584Z,95506.78
2023-05-06T00:11:41.883Z,95505.81
2023-05-06T00:12:48.214Z,95504.05
2023-05-06T00:13:54.369Z,95503.29
2023-05-06T00:15:00.316Z,95500.44
2023-05-06T00:16:07.482Z,95502.26
2023-05-06T00:17:13.347Z,95502.55
2023-05-06T00:18:19.385Z,95504.77
2023-05-06T00:19:25.379Z,95503.03
2023-05-06T00:20:32.678Z,95507.18
2023-05-06T00:21:39.089Z,95507.27
2023-05-06T00:22:45.045Z,95508.65
2023-05-06T00:23:51.254Z,95509.84
2023-05-06T00:24:57.622Z,95510.95
2023-05-06T00:26:04.077Z,95509.46
2023-05-06T00:27:09.885Z,95511.44
2023-05-06T00:28:15.572Z,95511.46
2023-05-06T00:29:21.912Z,95511.23
2023-05-06T00:30:28.618Z,95514.73
2023-05-06T00:31:34.977Z,95515.27
2023-05-06T00:32:41.237Z,95514.88
2023-05-06T00:33:47.190Z,95515.71
2023-05-06T00:34:53.479Z,95513.50
2023-05-06T00:35:59.525Z,95514.77
2023-05-06T00:37:05.468Z,95515.85
2023-05-06T00:38:13.924Z,95513.95
2023-05-06T00:39:20.139Z,95508.45
2023-05-06T00:40:26.449Z,95513.09
2023-05-06T00:41:34.692Z,95510.53
2023-05-06T00:42:40.735Z,95508.56
2023-05-06T00:43:46.452Z,95511.04
2023-05-06T00:44:53.150Z,95509.93
2023-05-06T00:45:59.099Z,95510.17
2023-05-06T00:47:05.711Z,95512.17
2023-05-06T00:48:12.290Z,95508.55
2023-05-06T00:49:18.609Z,95508.64
2023-05-06T00:50:24.859Z,95506.99
2023-05-06T00:51:31.822Z,95507.08
2023-05-06T00:52:37.785Z,95504.16
2023-05-06T00:53:47.839Z,95507.86
2023-05-06T00:54:54.331Z,95504.80
2023-05-06T00:56:00.769Z,95503.27
2023-05-06T00:57:06.629Z,95501.73
2023-05-06T00:58:13.009Z,95498.41
2023-05-06T00:59:19.423Z,95500.27
2023-05-06T01:00:25.912Z,95496.97
2023-05-06T01:01:33.478Z,95493.84
2023-05-06T01:02:46.880Z,95494.81
2023-05-06T01:03:57.490Z,95495.75
2023-05-06T01:05:04.310Z,95495.65
2023-05-06T01:06:24.009Z,95496.92
2023-05-06T01:07:35.928Z,95498.52
2023-05-06T01:08:47.105Z,95495.71
2023-05-06T01:09:57.427Z,95496.80
2023-05-06T01:11:09.837Z,95493.97
2023-05-06T01:12:23.160Z,95494.48
2023-05-06T01:13:46.039Z,95490.20
2023-05-06T01:15:01.399Z,95491.86
2023-05-06T01:16:10.207Z,95488.75
2023-05-06T01:17:21.891Z,95487.41
2023-05-06T01:18:31.397Z,95487.90
2023-05-06T01:19:46.796Z,95485.58
2023-05-06T01:20:56.037Z,95488.05
2023-05-06T01:22:05.130Z,95486.89
2023-05-06T01:23:10.700Z,95494.05
2023-05-06T01:24:16.445Z,95493.60
2023-05-06T01:25:23.622Z,95497.62
2023-05-06T01:26:30.085Z,95502.14
2023-05-06T01:27:36.234Z,95502.70
2023-05-06T01:28:42.178Z,95506.14
2023-05-06T01:29:49.319Z,95509.23
2023-05-06T01:31:03.719Z,95509.25
2023-05-06T01:32:26.576Z,95511.16
2023-05-06T01:33:44.736Z,95514.05
2023-05-06T01:35:05.870Z,95513.54
2023-05-06T01:36:19.095Z,95513.23
2023-05-06T01:37:32.388Z,95514.89
2023-05-06T01:38:49.414Z,95515.54
2023-05-06T01:39:59.374Z,95514.98
2023-05-06T01:41:06.018Z,95519.20
2023-05-06T01:42:14.009Z,95516.42
2023-05-06T01:43:21.281Z,95519.26
2023-05-06T01:44:31.645Z,95516.63
2023-05-06T01:45:39.608Z,95517.00
2023-05-06T01:46:46.342Z,95517.64
2023-05-06T01:47:53.183Z,95516.28
2023-05-06T01:49:02.667Z,95518.55
2023-05-06T01:50:11.095Z,95515.44
2023-05-06T01:51:17.277Z,95518.13
2023-05-06T01:52:23.950Z,95515.00
2023-05-06T01:53:30.398Z,95518.49
2023-05-06T01:54:36.624Z,95515.46
2023-05-06T01:55:42.566Z,95517.23
2023-05-06T01:56:48.707Z,95515.83
2023-05-06T01:57:54.759Z,95512.16
2023-05-06T01:59:01.208Z,95516.61
2023-05-06T02:00:10.049Z,95513.72
2023-05-06T02:01:16.150Z,95512.05
2023-05-06T02:02:22.409Z,95510.09
2023-05-06T02:03:29.076Z,95512.96
2023-05-06T02:04:35.430Z,95511.25
2023-05-06T02:05:42.425Z,95511.23
2023-05-06T02:06:49.062Z,95511.35
2023-05-06T02:07:54.952Z,95507.21
2023-05-06T02:09:01.392Z,95509.62
2023-05-06T02:10:09.301Z,95510.45
2023-05-06T02:11:15.636Z,95511.38
2023-05-06T02:12:21.481Z,95511.77
2023-05-06T02:13:27.333Z,95507.91
2023-05-06T02:14:33.422Z,95511.25
2023-05-06T02:15:39.906Z,95509.88
2023-05-06T02:16:45.980Z,95512.05
2023-05-06T02:17:51.954Z,95512.30
2023-05-06T02:18:57.785Z,95508.35
2023-05-06T02:20:03.969Z,95503.42
2023-05-06T02:21:10.090Z,95505.55
2023-05-06T02:22:16.080Z,95504.39
2023-05-06T02:23:21.912Z,95503.63
2023-05-06T02:24:28.316Z,95506.16
2023-05-06T02:25:34.265Z,95509.00
2023-05-06T02:26:40.205Z,95508.89
2023-05-06T02:27:46.479Z,95508.48
2023-05-06T02:28:52.572Z,95514.37
2023-05-06T02:29:59.400Z,95514.31
2023-05-06T02:31:06.387Z,95517.58
2023-05-06T02:32:12.606Z,95518.20
2023-05-06T02:33:18.847Z,95522.82
2023-05-06T02:34:25.456Z,95520.75
2023-05-06T02:35:31.701Z,95524.19
2023-05-06T02:36:37.578Z,95525.77
2023-05-06T02:37:43.378Z,95525.52
2023-05-06T02:38:49.826Z,95525.84
2023-05-06T02:39:56.018Z,95524.05
2023-05-06T02:41:02.320Z,95524.27
2023-05-06T02:42:08.877Z,95524.08
2023-05-06T02:43:14.931Z,95525.66
2023-05-06T02:44:20.769Z,95526.46
2023-05-06T02:45:27.064Z,95525.46
2023-05-06T02:46:33.108Z,95526.71
2023-05-06T02:47:39.003Z,95529.12
2023-05-06T02:48:45.164Z,95525.48
2023-05-06T02:49:51.425Z,95527.59
2023-05-06T02:50:57.649Z,95524.94
2023-05-06T02:52:04.386Z,95524.51
2023-05-06T02:53:10.599Z,95526.16
2023-05-06T02:54:17.158Z,95528.48
2023-05-06T02:55:23.503Z,95529.20
2023-05-06T02:56:29.408Z,95533.17
2023-05-06T02:57:35.460Z,95537.85
2023-05-06T02:58:41.964Z,95534.21
2023-05-06T02:59:48.061Z,95539.00
2023-05-06T03:00:54.019Z,95539.08
2023-05-06T03:02:00.820Z,95537.81
2023-05-06T03:03:07.145Z,95541.92
2023-05-06T03:04:13.707Z,95540.20
2023-05-06T03:05:21.318Z,95539.86
2023-05-06T03:06:27.363Z,95539.59
2023-05-06T03:07:33.459Z,95540.08
2023-05-06T03:08:39.333Z,95539.05
2023-05-06T03:09:46.007Z,95538.22
2023-05-06T03:10:52.495Z,95536.38
2023-05-06T03:11:59.884Z,95535.45
2023-05-06T03:13:05.986Z,95533.50
2023-05-06T03:14:12.487Z,95533.33
2023-05-06T03:15:19.229Z,95534.67
2023-05-06T03:16:25.538Z,95530.78
2023-05-06T03:17:31.726Z,95536.41
2023-05-06T03:18:37.766Z,95534.16
2023-05-06T03:19:43.519Z,95534.31
2023-05-06T03:20:51.270Z,95538.63
2023-05-06T03:21:57.902Z,95542.06
2023-05-06T03:23:04.037Z,95543.91
2023-05-06T03:24:10.319Z,95540.70
2023-05-06T03:25:16.913Z,95540.98
2023-05-06T03:26:22.869Z,95540.16
2023-05-06T03:27:29.247Z,95539.10
2023-05-06T03:28:36.280Z,95536.95
2023-05-06T03:29:42.316Z,95540.11
2023-05-06T03:30:48.424Z,95536.66
2023-05-06T03:31:56.401Z,95538.41
2023-05-06T03:33:03.514Z,95538.27
2023-05-06T03:34:09.656Z,95536.58
2023-05-06T03:35:16.370Z,95535.72
2023-05-06T03:36:25.267Z,95535.35
2023-05-06T03:37:30.807Z,95536.56
2023-05-06T03:38:36.961Z,95535.21
2023-05-06T03:39:43.314Z,95538.77
2023-05-06T03:40:50.164Z,95536.83
2023-05-06T03:41:56.115Z,95536.91
2023-05-06T03:43:02.508Z,95536.67
2023-05-06T03:44:08.554Z,95533.14
2023-05-06T03:45:14.710Z,95535.53
2023-05-06T03:46:20.905Z,95532.02
2023-05-06T03:47:27.092Z,95534.40
2023-05-06T03:48:33.276Z,95534.32
2023-05-06T03:49:39.014Z,95535.63
2023-05-06T03:50:44.998Z,95537.64
2023-05-06T03:51:51.070Z,95535.14
2023-05-06T03:52:56.923Z,95538.75
2023-05-06T03:54:03.626Z,95539.02
2023-05-06T03:55:11.520Z,95539.59
2023-05-06T03:56:18.532Z,95542.17
2023-05-06T03:57:24.391Z,95541.02
2023-05-06T03:58:30.527Z,95537.55
2023-05-06T03:59:36.422Z,95540.44
2023-05-06T04:00:42.352Z,95539.39
2023-05-06T04:01:49.356Z,95537.52
2023-05-06T04:02:55.730Z,95542.77
2023-05-06T04:04:01.958Z,95544.88
2023-05-06T04:05:10.243Z,95543.42
2023-05-06T04:06:16.219Z,95544.40
2023-05-06T04:07:22.725Z,95545.16
2023-05-06T04:08:28.759Z,95545.00
2023-05-06T04:09:34.933Z,95544.25
2023-05-06T04:10:42.126Z,95542.11
2023-05-06T04:11:48.006Z,95539.60
2023-05-06T04:12:54.565Z,95538.42
2023-05-06T04:14:01.291Z,95543.48
2023-05-06T04:15:10.522Z,95543.52
2023-05-06T04:16:17.212Z,95544.45
2023-05-06T04:17:23.282Z,95541.84
2023-05-06T04:18:29.738Z,95545.98
2023-05-06T04:19:35.805Z,95548.64
2023-05-06T04:20:42.913Z,95547.70
2023-05-06T04:21:49.268Z,95551.99
2023-05-06T04:22:55.483Z,95553.87
2023-05-06T04:24:02.646Z,95550.46
2023-05-06T04:25:12.132Z,95550.70
2023-05-06T04:26:18.286Z,95552.13
2023-05-06T04:27:26.688Z,95551.23
2023-05-06T04:28:33.652Z,95555.39
2023-05-06T04:29:39.764Z,95557.46
2023-05-06T04:30:46.635Z,95560.70
2023-05-06T04:31:54.330Z,95558.65
2023-05-06T04:33:00.671Z,95555.67
2023-05-06T04:34:08.097Z,95552.27
2023-05-06T04:35:15.164Z,95552.23
2023-05-06T04:36:21.609Z,95551.48
2023-05-06T04:37:28.858Z,95551.65
2023-05-06T04:38:36.019Z,95552.27
2023-05-06T04:39:42.654Z,95553.54
2023-05-06T04:40:49.731Z,95551.59
2023-05-06T04:41:55.861Z,95550.22
2023-05-06T04:43:03.359Z,95550.73
2023-05-06T04:44:09.761Z,95550.52
2023-05-06T04:45:17.076Z,95549.10
2023-05-06T04:46:24.235Z,95550.55
2023-05-06T04:47:30.264Z,95547.73
2023-05-06T04:48:36.757Z,95549.92
2023-05-06T04:49:43.478Z,95547.08
2023-05-06T04:50:50.193Z,95547.63
2023-05-06T04:51:57.151Z,95547.11
2023-05-06T04:53:03.205Z,95552.53
2023-05-06T04:54:09.355Z,95553.76
2023-05-06T04:55:15.794Z,95556.16
2023-05-06T04:56:22.677Z,95554.89
2023-05-06T04:57:28.659Z,95555.46
2023-05-06T04:58:35.115Z,95554.33
2023-05-06T04:59:42.891Z,95556.44
2023-05-06T05:00:49.050Z,95556.48
2023-05-06T05:01:54.794Z,95551.03
2023-05-06T05:03:02.256Z,95550.55
2023-05-06T05:04:08.557Z,95548.36
2023-05-06T05:05:15.807Z,95550.23
2023-05-06T05:06:21.797Z,95547.45
2023-05-06T05:07:27.805Z,95549.14
2023-05-06T05:08:33.660Z,95547.83
2023-05-06T05:09:40.702Z,95552.88
2023-05-06T05:10:47.682Z,95551.44
2023-05-06T05:11:53.833Z,95551.65
2023-05-06T05:13:00.125Z,95552.40
2023-05-06T05:14:07.217Z,95553.04
2023-05-06T05:15:15.163Z,95550.73
2023-05-06T05:16:21.173Z,95554.02
2023-05-06T05:17:27.952Z,95551.25
2023-05-06T05:18:34.297Z,95551.90
2023-05-06T05:19:41.115Z,95550.34
2023-05-06T05:20:47.322Z,95548.45
2023-05-06T05:21:55.035Z,95547.48
2023-05-06T05:23:01.479Z,95544.45
2023-05-06T05:24:09.140Z,95545.27
2023-05-06T05:25:15.241Z,95548.02
2023-05-06T05:26:21.091Z,95554.42
2023-05-06T05:27:27.610Z,95552.91
2023-05-06T05:28:33.594Z,95556.09
2023-05-06T05:29:39.800Z,95557.21
2023-05-06T05:30:45.776Z,95563.11
2023-05-06T05:31:52.098Z,95563.14
2023-05-06T05:32:58.399Z,95564.92
2023-05-06T05:34:04.909Z,95565.92
2023-05-06T05:35:12.209Z,95569.25
2023-05-06T05:36:18.854Z,95569.81
2023-05-06T05:37:24.856Z,95573.71
2023-05-06T05:38:31.265Z,95577.61
2023-05-06T05:39:36.999Z,95577.65
2023-05-06T05:40:42.949Z,95577.95
2023-05-06T05:41:49.299Z,95582.39
2023-05-06T05:42:56.268Z,95581.63
2023-05-06T05:44:02.872Z,95579.32
2023-05-06T05:45:11.711Z,95582.02
2023-05-06T05:46:18.282Z,95580.52
2023-05-06T05:47:24.414Z,95580.97
2023-05-06T05:48:33.388Z,95584.05
2023-05-06T05:49:39.525Z,95586.45
2023-05-06T05:50:46.391Z,95586.69
2023-05-06T05:51:52.517Z,95585.84
2023-05-06T05:52:59.009Z,95586.41
2023-05-06T05:54:05.727Z,95584.67
2023-05-06T05:55:12.229Z,95589.16
2023-05-06T05:56:18.984Z,95585.74
2023-05-06T05:57:25.177Z,95582.94
2023-05-06T05:58:31.050Z,95583.54
2023-05-06T05:59:38.086Z,95584.26
2023-05-06T06:00:43.973Z,95583.55
2023-05-06T06:01:51.588Z,95591.17
2023-05-06T06:02:58.333Z,95585.86
2023-05-06T06:04:06.007Z,95586.35
2023-05-06T06:05:12.281Z,95584.86
2023-05-06T06:06:18.637Z,95585.42
2023-05-06T06:07:25.000Z,95585.57
2023-05-06T06:08:32.814Z,95583.53
2023-05-06T06:09:39.450Z,95588.37
2023-05-06T06:10:46.150Z,95585.32
2023-05-06T06:11:52.575Z,95585.45
2023-05-06T06:12:58.457Z,95586.95
2023-05-06T06:14:04.671Z,95588.54
2023-05-06T06:15:13.267Z,95591.11
2023-05-06T06:16:19.513Z,95589.38
2023-05-06T06:17:25.613Z,95589.52
2023-05-06T06:18:32.038Z,95589.64
2023-05-06T06:19:38.331Z,95590.75
2023-05-06T06:20:44.764Z,95587.22
2023-05-06T06:21:50.541Z,95584.80
2023-05-06T06:22:56.859Z,95585.58
2023-05-06T06:24:05.247Z,95582.59
2023-05-06T06:25:12.292Z,95584.19
2023-05-06T06:26:18.837Z,95586.50
2023-05-06T06:27:26.059Z,95583.79
2023-05-06T06:28:32.698Z,95587.08
2023-05-06T06:29:39.584Z,95589.30
2023-05-06T06:30:45.934Z,95586.95
2023-05-06T06:31:52.969Z,95587.96
2023-05-06T06:33:01.478Z,95587.23
2023-05-06T06:34:09.036Z,95588.45
2023-05-06T06:35:15.126Z,95591.73
2023-05-06T06:36:21.638Z,95591.60
2023-05-06T06:37:28.094Z,95588.10
2023-05-06T06:38:34.619Z,95591.72
2023-05-06T06:39:40.988Z,95587.52
2023-05-06T06:40:47.750Z,95585.63
2023-05-06T06:41:56.248Z,95588.33
2023-05-06T06:43:02.573Z,95585.14
2023-05-06T06:44:08.556Z,95585.94
2023-05-06T06:45:16.039Z,95580.41
2023-05-06T06:46:23.722Z,95578.44
2023-05-06T06:47:30.435Z,95575.70
2023-05-06T06:48:36.751Z,95579.34
2023-05-06T06:49:42.694Z,95578.82
2023-05-06T06:50:48.476Z,95580.06
2023-05-06T06:51:56.845Z,95583.98
2023-05-06T06:53:04.826Z,95585.10
2023-05-06T06:54:13.327Z,95582.77
2023-05-06T06:55:20.127Z,95583.67
2023-05-06T06:56:27.372Z,95582.65
2023-05-06T06:57:33.402Z,95583.21
2023-05-06T06:58:39.714Z,95584.51
2023-05-06T06:59:47.882Z,95585.59
2023-05-06T07:00:54.202Z,95586.23
2023-05-06T07:02:00.077Z,95584.52
2023-05-06T07:03:06.867Z,95580.08
2023-05-06T07:04:13.507Z,95580.44
2023-05-06T07:05:20.064Z,95576.48
2023-05-06T07:06:26.014Z,95579.58
2023-05-06T07:07:32.574Z,95578.96
2023-05-06T07:08:39.533Z,95581.77
2023-05-06T07:09:46.088Z,95573.41
2023-05-06T07:10:52.673Z,95572.50
2023-05-06T07:11:59.020Z,95571.63
2023-05-06T07:13:05.855Z,95571.56
2023-05-06T07:14:14.170Z,95572.52
2023-05-06T07:15:20.981Z,95567.84
2023-05-06T07:16:27.710Z,95569.45
2023-05-06T07:17:34.443Z,95567.01
2023-05-06T07:18:41.262Z,95568.38
2023-05-06T07:19:47.402Z,95566.39
2023-05-06T07:20:53.719Z,95567.60
2023-05-06T07:22:01.162Z,95565.99
2023-05-06T07:23:07.515Z,95569.50
2023-05-06T07:24:13.932Z,95569.80
2023-05-06T07:25:20.314Z,95566.98
2023-05-06T07:26:26.531Z,95564.98
2023-05-06T07:27:33.131Z,95563.05
2023-05-06T07:28:39.031Z,95569.83
2023-05-06T07:29:44.716Z,95566.33
2023-05-06T07:30:52.561Z,95567.38
2023-05-06T07:31:59.094Z,95565.41
2023-05-06T07:33:05.388Z,95565.67
2023-05-06T07:34:11.706Z,95562.45
2023-05-06T07:35:18.346Z,95565.92
2023-05-06T07:36:24.824Z,95565.23
2023-05-06T07:37:31.182Z,95567.40
2023-05-06T07:38:37.681Z,95559.77
2023-05-06T07:39:44.303Z,95560.25
2023-05-06T07:40:51.480Z,95564.25
2023-05-06T07:41:58.085Z,95558.58
2023-05-06T07:43:04.149Z,95558.27
2023-05-06T07:44:09.912Z,95554.48
2023-05-06T07:45:16.173Z,95553.25
2023-05-06T07:46:22.795Z,95554.47
2023-05-06T07:47:32.366Z,95558.09
2023-05-06T07:48:39.880Z,95549.64
2023-05-06T07:49:46.028Z,95549.98
2023-05-06T07:50:52.250Z,95552.54
2023-05-06T07:51:58.231Z,95548.68
2023-05-06T07:53:04.935Z,95550.48
2023-05-06T07:54:11.250Z,95547.05
2023-05-06T07:55:18.209Z,95550.27
2023-05-06T07:56:24.356Z,95550.28
2023-05-06T07:57:30.122Z,95549.05
2023-05-06T07:58:37.478Z,95548.16
2023-05-06T07:59:44.963Z,95543.59
2023-05-06T08:00:51.990Z,95544.18
2023-05-06T08:01:58.180Z,95546.08
2023-05-06T08:03:04.725Z,95543.95
2023-05-06T08:04:12.011Z,95541.52
2023-05-06T08:05:18.435Z,95540.75
2023-05-06T08:06:24.761Z,95544.05
2023-05-06T08:07:31.219Z,95542.11
2023-05-06T08:08:37.573Z,95541.61
2023-05-06T08:09:43.425Z,95543.94
2023-05-06T08:10:49.958Z,95542.13
2023-05-06T08:11:57.052Z,95543.09
2023-05-06T08:13:03.949Z,95547.31
2023-05-06T08:14:10.477Z,95547.92
2023-05-06T08:15:16.431Z,95547.76
2023-05-06T08:16:29.522Z,95547.30
2023-05-06T08:17:35.343Z,95548.33
2023-05-06T08:18:41.663Z,95547.10
2023-05-06T08:19:48.735Z,95545.92
2023-05-06T08:20:54.918Z,95543.61
2023-05-06T08:22:00.879Z,95544.55
2023-05-06T08:23:07.343Z,95547.41
2023-05-06T08:24:14.264Z,95545.81
2023-05-06T08:25:20.753Z,95547.80
2023-05-06T08:26:27.044Z,95548.09
2023-05-06T08:27:33.145Z,95548.86
2023-05-06T08:28:39.490Z,95554.48
2023-05-06T08:29:45.993Z,95551.59
2023-05-06T08:30:52.999Z,95554.95
2023-05-06T08:32:01.235Z,95555.75
2023-05-06T08:33:07.523Z,95557.52
2023-05-06T08:34:14.026Z,95549.97
2023-05-06T08:35:20.532Z,95551.91
2023-05-06T08:36:28.220Z,95554.27
2023-05-06T08:37:34.542Z,95553.46
2023-05-06T08:38:41.403Z,95552.63
2023-05-06T08:39:47.856Z,95554.39
2023-05-06T08:41:00.775Z,95556.69
2023-05-06T08:42:11.474Z,95560.34
2023-05-06T08:43:26.309Z,95551.19
2023-05-06T08:44:34.897Z,95553.64
2023-05-06T08:45:42.741Z,95553.96
2023-05-06T08:46:52.039Z,95557.23
2023-05-06T08:47:58.371Z,95554.20
2023-05-06T08:49:06.075Z,95552.88
2023-05-06T08:50:13.258Z,95551.55
2023-05-06T08:51:24.819Z,95552.34
2023-05-06T08:52:37.037Z,95553.56
2023-05-06T08:53:47.588Z,95551.86
2023-05-06T08:55:01.804Z,95557.70
2023-05-06T08:56:13.803Z,95554.27
2023-05-06T08:57:21.590Z,95552.99
2023-05-06T08:58:28.093Z,95555.55
2023-05-06T08:59:34.604Z,95557.44
2023-05-06T09:00:41.320Z,95550.77
2023-05-06T09:01:49.965Z,95551.68
2023-05-06T09:02:55.804Z,95553.34
2023-05-06T09:04:07.753Z,95551.88
2023-05-06T09:05:14.230Z,95548.98
2023-05-06T09:06:20.954Z,95552.73
2023-05-06T09:07:27.156Z,95552.45
2023-05-06T09:08:33.562Z,95550.27
2023-05-06T09:09:39.711Z,95553.55
2023-05-06T09:10:49.137Z,95555.77
2023-05-06T09:11:57.612Z,95556.18
2023-05-06T09:13:04.042Z,95551.81
2023-05-06T09:14:15.661Z,95552.76
2023-05-06T09:15:27.486Z,95549.44
2023-05-06T09:16:33.746Z,95548.77
2023-05-06T09:17:40.688Z,95550.41
2023-05-06T09:18:46.960Z,95550.40
2023-05-06T09:19:57.444Z,95551.55
2023-05-06T09:21:06.390Z,95552.19
2023-05-06T09:22:14.436Z,95551.77
2023-05-06T09:23:22.611Z,95549.92
2023-05-06T09:24:29.189Z,95543.48
2023-05-06T09:25:38.414Z,95541.70
2023-05-06T09:26:46.625Z,95547.41
2023-05-06T09:28:03.010Z,95550.44
2023-05-06T09:29:10.311Z,95553.65
2023-05-06T09:30:17.339Z,95547.60
2023-05-06T09:31:23.505Z,95549.83
2023-05-06T09:32:30.040Z,95541.64
2023-05-06T09:33:37.875Z,95544.21
2023-05-06T09:34:48.986Z,95539.23
2023-05-06T09:35:55.942Z,95543.04
2023-05-06T09:37:02.605Z,95541.54
2023-05-06T09:38:09.992Z,95539.98
2023-05-06T09:39:16.367Z,95539.09
2023-05-06T09:40:26.816Z,95541.09
2023-05-06T09:41:33.432Z,95538.10
2023-05-06T09:42:39.667Z,95536.13
2023-05-06T09:43:49.151Z,95535.89
2023-05-06T09:45:00.490Z,95540.48
2023-05-06T09:46:09.233Z,95540.13
2023-05-06T09:47:16.479Z,95541.45
2023-05-06T09:48:23.873Z,95536.15
2023-05-06T09:49:33.823Z,95538.58
2023-05-06T09:50:39.800Z,95535.67
2023-05-06T09:51:51.842Z,95538.14
2023-05-06T09:53:04.463Z,95536.77
2023-05-06T09:54:11.022Z,95529.80
2023-05-06T09:55:20.441Z,95532.23
2023-05-06T09:56:28.228Z,95523.31
2023-05-06T09:57:37.086Z,95529.06
2023-05-06T09:58:46.364Z,95526.87
2023-05-06T09:59:52.616Z,95523.84
2023-05-06T10:00:59.792Z,95521.09
2023-05-06T10:02:07.199Z,95521.40
2023-05-06T10:03:18.842Z,95524.92
2023-05-06T10:04:26.593Z,95528.83
2023-05-06T10:05:35.458Z,95524.48
2023-05-06T10:06:43.032Z,95525.63
2023-05-06T10:07:53.482Z,95526.01
2023-05-06T10:09:00.986Z,95529.33
2023-05-06T10:10:14.373Z,95524.84
2023-05-06T10:11:24.134Z,95525.98
2023-05-06T10:12:31.315Z,95519.08
2023-05-06T10:13:39.258Z,95519.88
2023-05-06T10:14:45.485Z,95516.07
2023-05-06T10:15:53.029Z,95515.40
2023-05-06T10:17:10.228Z,95518.57
2023-05-06T10:18:18.327Z,95514.76
2023-05-06T10:19:27.331Z,95509.31
2023-05-06T10:20:36.110Z,95511.96
2023-05-06T10:21:49.653Z,95504.51
2023-05-06T10:23:10.073Z,95497.47
2023-05-06T10:24:24.158Z,95499.42
2023-05-06T10:25:36.617Z,95490.30
2023-05-06T10:26:45.157Z,95504.51
2023-05-06T10:27:52.232Z,95505.02
2023-05-06T10:29:05.997Z,95504.26
2023-05-06T10:30:17.768Z,95506.46
2023-05-06T10:31:25.249Z,95500.48
2023-05-06T10:32:34.091Z,95505.63
2023-05-06T10:33:42.512Z,95498.52
2023-05-06T10:34:56.701Z,95503.69
2023-05-06T10:36:20.893Z,95497.42
2023-05-06T10:37:30.002Z,95494.40
2023-05-06T10:38:41.666Z,95496.99
2023-05-06T10:39:49.575Z,95497.84
2023-05-06T10:40:58.896Z,95504.23
2023-05-06T10:42:07.245Z,95502.81
2023-05-06T10:43:31.030Z,95499.39
2023-05-06T10:44:58.647Z,95499.60
2023-05-06T10:46:09.275Z,95498.61
2023-05-06T10:47:15.445Z,95500.14
2023-05-06T10:48:22.208Z,95499.27
2023-05-06T10:49:29.743Z,95499.46
2023-05-06T10:50:36.793Z,95501.17
2023-05-06T10:51:43.873Z,95502.30
2023-05-06T10:52:51.598Z,95500.48
2023-05-06T10:54:04.144Z,95495.12
2023-05-06T10:55:27.784Z,95499.02
2023-05-06T10:56:36.731Z,95498.20
2023-05-06T10:57:42.300Z,95496.92
2023-05-06T10:58:50.586Z,95495.44
2023-05-06T10:59:57.171Z,95495.58
2023-05-06T11:01:03.468Z,95492.34
2023-05-06T11:02:17.028Z,95496.14
2023-05-06T11:03:26.146Z,95495.85
2023-05-06T11:04:34.756Z,95494.88
2023-05-06T11:05:51.722Z,95494.65
2023-05-06T11:07:10.901Z,95495.59
2023-05-06T11:08:22.038Z,95494.83
2023-05-06T11:09:30.155Z,95492.80
2023-05-06T11:10:37.217Z,95487.61
2023-05-06T11:11:58.495Z,95491.42
2023-05-06T11:13:24.734Z,95488.52
2023-05-06T11:14:34.737Z,95488.87
2023-05-06T11:15:43.781Z,95486.48
2023-05-06T11:16:49.572Z,95483.05
2023-05-06T11:17:57.379Z,95483.02
2023-05-06T11:19:05.212Z,95482.31
2023-05-06T11:20:27.389Z,95485.98
2023-05-06T11:21:43.174Z,95489.98
2023-05-06T11:22:49.654Z,95486.84
2023-05-06T11:24:11.740Z,95486.61
2023-05-06T11:25:41.592Z,95486.50
2023-05-06T11:26:50.570Z,95482.56
2023-05-06T11:27:57.622Z,95486.16
2023-05-06T11:29:06.152Z,95486.73
2023-05-06T11:30:18.550Z,95478.91
2023-05-06T11:31:25.769Z,95483.28
2023-05-06T11:32:33.366Z,95488.42
2023-05-06T11:33:47.393Z,95483.98
2023-05-06T11:34:57.326Z,95483.45
2023-05-06T11:36:04.701Z,95479.17
2023-05-06T11:37:11.782Z,95479.67
2023-05-06T11:38:18.801Z,95477.94
2023-05-06T11:39:30.912Z,95480.55
2023-05-06T11:40:37.265Z,95478.42
2023-05-06T11:41:44.105Z,95478.86
2023-05-06T11:42:49.962Z,95482.48
2023-05-06T11:43:56.535Z,95482.21
2023-05-06T11:45:05.708Z,95484.61
2023-05-06T11:46:11.689Z,95478.84
2023-05-06T11:47:21.591Z,95484.35
2023-05-06T11:48:36.585Z,95477.32
2023-05-06T11:49:46.131Z,95481.67
2023-05-06T11:50:55.071Z,95476.39
2023-05-06T11:52:01.429Z,95476.66
2023-05-06T11:53:09.284Z,95473.41
2023-05-06T11:54:19.581Z,95476.37
2023-05-06T11:55:28.480Z,95471.33
2023-05-06T11:56:41.816Z,95473.01
2023-05-06T11:57:48.482Z,95473.20
2023-05-06T11:58:55.123Z,95473.34
2023-05-06T12:00:00.877Z,95471.64
2023-05-06T12:01:07.427Z,95470.60
2023-05-06T12:02:18.842Z,95463.14
2023-05-06T12:03:27.933Z,95462.17
2023-05-06T12:04:43.022Z,95463.77
2023-05-06T12:05:51.099Z,95463.30
2023-05-06T12:07:00.220Z,95460.93
2023-05-06T12:08:16.317Z,95464.96
2023-05-06T12:09:28.188Z,95462.09
2023-05-06T12:10:34.644Z,95467.99
2023-05-06T12:11:44.847Z,95465.73
2023-05-06T12:12:51.905Z,95461.47
2023-05-06T12:13:58.741Z,95463.86
2023-05-06T12:15:07.450Z,95459.84
2023-05-06T12:16:16.201Z,95457.64
2023-05-06T12:17:23.437Z,95460.58
2023-05-06T12:18:31.198Z,95458.24
2023-05-06T12:19:41.176Z,95458.36
2023-05-06T12:20:47.859Z,95459.30
2023-05-06T12:21:55.687Z,95461.95
2023-05-06T12:23:09.422Z,95458.56
2023-05-06T12:24:15.971Z,95457.65
2023-05-06T12:25:22.498Z,95457.56
2023-05-06T12:26:30.517Z,95451.60
2023-05-06T12:27:38.029Z,95450.14
2023-05-06T12:28:44.623Z,95452.86
2023-05-06T12:29:55.052Z,95453.54
2023-05-06T12:31:01.023Z,95451.95
2023-05-06T12:32:12.805Z,95449.65
2023-05-06T12:33:19.035Z,95451.09
2023-05-06T12:34:38.543Z,95452.47
2023-05-06T12:35:44.895Z,95447.10
2023-05-06T12:36:51.450Z,95446.13
2023-05-06T12:38:07.331Z,95448.31
2023-05-06T12:39:14.176Z,95447.83
2023-05-06T12:40:20.620Z,95446.96
2023-05-06T12:41:39.195Z,95439.48
2023-05-06T12:42:45.458Z,95442.08
2023-05-06T12:43:53.340Z,95446.20
2023-05-06T12:45:13.429Z,95445.56
2023-05-06T12:46:19.864Z,95447.76
2023-05-06T12:47:27.386Z,95447.66
2023-05-06T12:48:33.962Z,95444.99
2023-05-06T12:49:51.326Z,95435.20
2023-05-06T12:50:57.921Z,95447.41
2023-05-06T12:52:12.786Z,95441.52
2023-05-06T12:53:34.176Z,95445.52
2023-05-06T12:54:40.230Z,95442.15
2023-05-06T12:55:46.690Z,95440.14
2023-05-06T12:56:52.461Z,95440.59
2023-05-06T12:57:58.597Z,95438.52
2023-05-06T12:59:05.451Z,95441.70
2023-05-06T13:00:15.486Z,95441.02
2023-05-06T13:01:22.402Z,95440.12
2023-05-06T13:02:28.855Z,95441.63
2023-05-06T13:03:38.014Z,95436.16
2023-05-06T13:04:42.977Z,95433.70
2023-05-06T13:05:52.200Z,95430.17
2023-05-06T13:06:57.117Z,95431.84
2023-05-06T13:08:05.946Z,95433.13
2023-05-06T13:09:13.088Z,95430.29
2023-05-06T13:10:20.724Z,95430.83
2023-05-06T13:11:28.487Z,95432.20
2023-05-06T13:12:34.702Z,95430.70
2023-05-06T13:13:41.813Z,95429.07
2023-05-06T13:14:47.906Z,95429.05
2023-05-06T13:15:57.390Z,95428.55
2023-05-06T13:17:07.206Z,95428.77